Charlotte, NC (28201)

11:12 PM EDT on August 30, 2016 (GMT -0400)
Eastover | | Change Station

Elev 0 ft 35.19 °N, 80.82 °W | Updated 6 seconds ago

Scattered Clouds
Scattered Clouds
73.8 °F
Feels Like 73 °F
N
0.0
Wind Variable Wind from NNE
Gusts 0.0 mph

Today
High -- | Low -- °F
--% Chance of Precip.
Yesterday
High -- | Low -- °F
Precip. -- in
Pressure 30.02 in
Visibility 10.0 miles
Clouds Scattered Clouds 25000 ft
Heat Index 73 °F
Dew Point 69 °F
Humidity 87%
Rainfall 0.00 in
Snow Depth Not available.
6:54 AM 7:52 PM
Waning Crescent, 2% visible
METAR KCLT 310252Z 12004KT 10SM SCT250 28/18 A3005 RMK AO2 SLP166 T02780183 53011
Pressure 30.02 in
Visibility 10.0 miles
Clouds Scattered Clouds 25000 ft
Heat Index 73 °F
Dew Point 69 °F
Humidity 87%
Rainfall 0.00 in
Snow Depth Not available.
6:54 AM 7:52 PM
Waning Crescent, 2% visible
METAR KCLT 310252Z 12004KT 10SM SCT250 28/18 A3005 RMK AO2 SLP166 T02780183 53011

10-Day Weather Forecast

Almanac

Astronomy

Aug. 30, 2016 Rise Set
Actual Time
Civil Twilight
Nautical Twilight
Astronomical Twilight
Moon
Length of Visible Light
Length of Day
Tomorrow will be .
, % of the Moon is Illuminated

Today's Extremes

State Highs State Lows

Community

WunderPhotos

Upload Photos

1,936,016 photos uploaded!

WunderBlog® & News

Nearby

Air Quality

  Air Quality AQ Index Pollutant
Not available.

Snow Depth

Station Depth Elevation

Earthquake Activity

City Distance Mag. Time & Date
Minimum magnitude displayed is 2.5.

Coastal Water Temperatures

Place Temperature

Stations

Nearby Weather Stations

Station Location Temp. Windchill Dew Point Humidity Wind Precip. Elev Updated Type
                   

Watches & Warnings

There are currently no watches in effect.